エドモントン の空港の天気 - METARとTAF

エドモントン国際空港 ( CYEG / YEG ) - カナダ アルバータ州Edmonton Capital Region
飛行場実況気象(Metar)
観測時間08/11 01:00 MDT (08/11 07:00 UTC)
風向・風速北西 2m/s
視程10km以上
天気現象
少しの雲 雲底高度 3960m
気温7℃
湿度87%
気圧1013.2hPa
METARCYEG 110700Z 32003KT 20SM FEW130 07/05 A2989 RMK AC1 SLP132
過去の天気等 Google飛行場航空写真 Wunderground天気予報

過去48時間のMETAR

飛行場予報(TAF)
発表時間: 8/10 23:49 MDT (8/11 05:49 UTC)
予報対象時間: 11日0時 MDT ~ 12日0時 MDT
風向・風速不定 2m/s
視程10km以上
少しの雲 雲底高度 3660m
11日11時 MDT から
風向・風速南東 4m/s
視程10km以上
全天の4割程度の雲 雲底高度 1830m
11日15時 MDT から
風向・風速南東 6m/s 瞬間風速 11m/s
視程10km以上
全天の4割程度の雲 雲底高度 1520m
11日16時 MDT から 確率 30% で
風向・風速不定 10m/s 瞬間風速 18m/s
視程6440m
天気現象雷雨
全天の8割程度の積乱雲 雲底高度 1520m
11日20時 MDT から
風向・風速南南東 5m/s
視程10km以上
少しの雲 雲底高度 1220m
全天の4割程度の雲 雲底高度 7010m
11日20時 MDT ~ 11日24時 MDT に一時的に
視程10km以上
天気現象周辺で雷
全天の4割程度の積乱雲 雲底高度 1220m
TAF CYEG 110549Z 1106/1206 VRB03KT P6SM FEW120
FM111700 14008KT P6SM SCT060
FM112100 14012G22KT P6SM SCT050
PROB30 1122/1202 VRB20G35KT 4SM TSRA BKN050CB
FM120200 16010KT P6SM FEW040 SCT230
TEMPO 1202/1206 P6SM VCTS SCT040CB RMK NXT FCST BY 110900Z